sensor_id;sensor_type;location;lat;lon;timestamp;temperature;humidity
30001;DHT22;16845;48.670;9.000;2022-08-19T00:01:41;19.80;99.90
30001;DHT22;16845;48.670;9.000;2022-08-19T00:04:12;19.90;99.90
30001;DHT22;16845;48.670;9.000;2022-08-19T00:06:42;19.80;99.90
30001;DHT22;16845;48.670;9.000;2022-08-19T00:09:14;19.80;99.90
30001;DHT22;16845;48.670;9.000;2022-08-19T00:11:43;19.80;99.90
30001;DHT22;16845;48.670;9.000;2022-08-19T00:14:13;19.80;99.90
30001;DHT22;16845;48.670;9.000;2022-08-19T00:16:44;19.80;99.90
30001;DHT22;16845;48.670;9.000;2022-08-19T00:19:12;19.80;99.90
30001;DHT22;16845;48.670;9.000;2022-08-19T00:21:41;19.70;99.90
30001;DHT22;16845;48.670;9.000;2022-08-19T00:24:13;19.70;99.90
30001;DHT22;16845;48.670;9.000;2022-08-19T00:26:42;19.70;99.90
30001;DHT22;16845;48.670;9.000;2022-08-19T00:29:12;19.70;99.90
30001;DHT22;16845;48.670;9.000;2022-08-19T00:31:40;19.80;99.90
30001;DHT22;16845;48.670;9.000;2022-08-19T00:34:09;19.70;99.90
30001;DHT22;16845;48.670;9.000;2022-08-19T00:36:38;19.80;99.90
30001;DHT22;16845;48.670;9.000;2022-08-19T00:39:06;19.70;99.90
30001;DHT22;16845;48.670;9.000;2022-08-19T00:41:35;19.80;99.90
30001;DHT22;16845;48.670;9.000;2022-08-19T00:44:07;19.70;99.90
30001;DHT22;16845;48.670;9.000;2022-08-19T00:46:38;19.70;99.90
30001;DHT22;16845;48.670;9.000;2022-08-19T00:49:10;19.70;99.90
30001;DHT22;16845;48.670;9.000;2022-08-19T00:51:42;19.70;99.90
30001;DHT22;16845;48.670;9.000;2022-08-19T00:54:11;19.70;99.90
30001;DHT22;16845;48.670;9.000;2022-08-19T00:56:42;19.70;99.90
30001;DHT22;16845;48.670;9.000;2022-08-19T00:59:11;19.70;99.90
30001;DHT22;16845;48.670;9.000;2022-08-19T01:01:59;19.70;99.90
30001;DHT22;16845;48.670;9.000;2022-08-19T01:04:27;19.60;99.90
30001;DHT22;16845;48.670;9.000;2022-08-19T01:06:56;19.60;99.90
30001;DHT22;16845;48.670;9.000;2022-08-19T01:09:25;19.70;99.90
30001;DHT22;16845;48.670;9.000;2022-08-19T01:11:54;19.70;99.90
30001;DHT22;16845;48.670;9.000;2022-08-19T01:14:23;19.70;99.90
30001;DHT22;16845;48.670;9.000;2022-08-19T01:16:52;19.70;99.90
30001;DHT22;16845;48.670;9.000;2022-08-19T01:19:27;19.60;99.90
30001;DHT22;16845;48.670;9.000;2022-08-19T01:22:13;19.60;99.90
30001;DHT22;16845;48.670;9.000;2022-08-19T01:24:44;19.60;99.90
30001;DHT22;16845;48.670;9.000;2022-08-19T01:27:15;19.50;99.90
30001;DHT22;16845;48.670;9.000;2022-08-19T01:29:44;19.50;99.90
30001;DHT22;16845;48.670;9.000;2022-08-19T01:32:14;19.60;99.90
30001;DHT22;16845;48.670;9.000;2022-08-19T01:34:59;19.60;99.90
30001;DHT22;16845;48.670;9.000;2022-08-19T01:37:29;19.60;99.90
30001;DHT22;16845;48.670;9.000;2022-08-19T01:39:59;19.50;99.90
30001;DHT22;16845;48.670;9.000;2022-08-19T01:42:27;19.50;99.90
30001;DHT22;16845;48.670;9.000;2022-08-19T01:44:56;19.50;99.90
30001;DHT22;16845;48.670;9.000;2022-08-19T01:47:24;19.40;99.90
30001;DHT22;16845;48.670;9.000;2022-08-19T01:49:52;19.30;99.90
30001;DHT22;16845;48.670;9.000;2022-08-19T01:52:19;19.10;99.90
30001;DHT22;16845;48.670;9.000;2022-08-19T01:54:47;19.00;99.90
30001;DHT22;16845;48.670;9.000;2022-08-19T01:57:17;18.90;99.90
30001;DHT22;16845;48.670;9.000;2022-08-19T01:59:45;18.80;99.90
30001;DHT22;16845;48.670;9.000;2022-08-19T02:02:13;18.70;99.90
30001;DHT22;16845;48.670;9.000;2022-08-19T02:04:41;18.70;99.90
30001;DHT22;16845;48.670;9.000;2022-08-19T02:07:09;18.60;99.90
30001;DHT22;16845;48.670;9.000;2022-08-19T02:09:37;18.60;99.90
30001;DHT22;16845;48.670;9.000;2022-08-19T02:12:06;18.70;99.90
30001;DHT22;16845;48.670;9.000;2022-08-19T02:14:36;18.70;99.90
30001;DHT22;16845;48.670;9.000;2022-08-19T02:17:04;18.70;99.90
30001;DHT22;16845;48.670;9.000;2022-08-19T02:19:33;18.60;99.90
30001;DHT22;16845;48.670;9.000;2022-08-19T02:22:05;18.70;99.90
30001;DHT22;16845;48.670;9.000;2022-08-19T02:24:33;18.70;99.90
30001;DHT22;16845;48.670;9.000;2022-08-19T02:27:00;18.60;99.90
30001;DHT22;16845;48.670;9.000;2022-08-19T02:29:28;18.60;99.90
30001;DHT22;16845;48.670;9.000;2022-08-19T02:31:58;18.60;99.90
30001;DHT22;16845;48.670;9.000;2022-08-19T02:34:26;18.60;99.90
30001;DHT22;16845;48.670;9.000;2022-08-19T02:36:54;18.50;99.90
30001;DHT22;16845;48.670;9.000;2022-08-19T02:39:26;18.60;99.90
30001;DHT22;16845;48.670;9.000;2022-08-19T02:41:53;18.60;99.90
30001;DHT22;16845;48.670;9.000;2022-08-19T02:44:21;18.70;99.90
30001;DHT22;16845;48.670;9.000;2022-08-19T02:46:58;18.70;99.90
30001;DHT22;16845;48.670;9.000;2022-08-19T02:49:26;18.70;99.90
30001;DHT22;16845;48.670;9.000;2022-08-19T02:51:54;18.70;99.90
30001;DHT22;16845;48.670;9.000;2022-08-19T02:54:22;18.70;99.90
30001;DHT22;16845;48.670;9.000;2022-08-19T02:56:50;18.70;99.90
30001;DHT22;16845;48.670;9.000;2022-08-19T02:59:18;18.80;99.90
30001;DHT22;16845;48.670;9.000;2022-08-19T03:01:48;18.80;99.90
30001;DHT22;16845;48.670;9.000;2022-08-19T03:04:19;18.70;99.90
30001;DHT22;16845;48.670;9.000;2022-08-19T03:06:47;18.70;99.90
30001;DHT22;16845;48.670;9.000;2022-08-19T03:09:17;18.60;99.90
30001;DHT22;16845;48.670;9.000;2022-08-19T03:11:45;18.60;99.90
30001;DHT22;16845;48.670;9.000;2022-08-19T03:14:15;18.50;99.90
30001;DHT22;16845;48.670;9.000;2022-08-19T03:16:47;18.60;99.90
30001;DHT22;16845;48.670;9.000;2022-08-19T03:19:19;18.50;99.90
30001;DHT22;16845;48.670;9.000;2022-08-19T03:21:47;18.50;99.90
30001;DHT22;16845;48.670;9.000;2022-08-19T03:24:16;18.50;99.90
30001;DHT22;16845;48.670;9.000;2022-08-19T03:26:47;18.50;99.90
30001;DHT22;16845;48.670;9.000;2022-08-19T03:29:16;18.50;99.90
30001;DHT22;16845;48.670;9.000;2022-08-19T03:31:58;18.50;99.90
30001;DHT22;16845;48.670;9.000;2022-08-19T03:34:30;18.50;99.90
30001;DHT22;16845;48.670;9.000;2022-08-19T03:37:03;18.50;99.90
30001;DHT22;16845;48.670;9.000;2022-08-19T03:39:32;18.50;99.90
30001;DHT22;16845;48.670;9.000;2022-08-19T03:42:00;18.50;99.90
30001;DHT22;16845;48.670;9.000;2022-08-19T03:44:49;18.50;99.90
30001;DHT22;16845;48.670;9.000;2022-08-19T03:47:17;18.50;99.90
30001;DHT22;16845;48.670;9.000;2022-08-19T03:49:46;18.50;99.90
30001;DHT22;16845;48.670;9.000;2022-08-19T03:52:14;18.50;99.90
30001;DHT22;16845;48.670;9.000;2022-08-19T03:54:42;18.50;99.90
30001;DHT22;16845;48.670;9.000;2022-08-19T03:57:10;18.50;99.90
30001;DHT22;16845;48.670;9.000;2022-08-19T03:59:38;18.50;99.90
30001;DHT22;16845;48.670;9.000;2022-08-19T04:02:09;18.50;99.90
30001;DHT22;16845;48.670;9.000;2022-08-19T04:04:39;18.50;99.90
30001;DHT22;16845;48.670;9.000;2022-08-19T04:07:09;18.60;99.90
30001;DHT22;16845;48.670;9.000;2022-08-19T04:09:39;18.60;99.90
30001;DHT22;16845;48.670;9.000;2022-08-19T04:12:07;18.60;99.90
30001;DHT22;16845;48.670;9.000;2022-08-19T04:14:35;18.60;99.90
30001;DHT22;16845;48.670;9.000;2022-08-19T04:17:04;18.60;99.90
30001;DHT22;16845;48.670;9.000;2022-08-19T04:19:33;18.50;99.90
30001;DHT22;16845;48.670;9.000;2022-08-19T04:22:01;18.50;99.90
30001;DHT22;16845;48.670;9.000;2022-08-19T04:24:31;18.60;99.90
30001;DHT22;16845;48.670;9.000;2022-08-19T04:27:00;18.50;99.90
30001;DHT22;16845;48.670;9.000;2022-08-19T04:29:28;18.50;99.90
30001;DHT22;16845;48.670;9.000;2022-08-19T04:31:58;18.50;99.90
30001;DHT22;16845;48.670;9.000;2022-08-19T04:34:35;18.50;99.90
30001;DHT22;16845;48.670;9.000;2022-08-19T04:37:24;18.40;99.90
30001;DHT22;16845;48.670;9.000;2022-08-19T04:40:04;18.40;99.90
30001;DHT22;16845;48.670;9.000;2022-08-19T04:42:49;18.50;99.90
30001;DHT22;16845;48.670;9.000;2022-08-19T04:45:18;18.50;99.90
30001;DHT22;16845;48.670;9.000;2022-08-19T04:47:48;18.60;99.90
30001;DHT22;16845;48.670;9.000;2022-08-19T04:50:25;18.60;99.90
30001;DHT22;16845;48.670;9.000;2022-08-19T04:52:53;18.60;99.90
30001;DHT22;16845;48.670;9.000;2022-08-19T04:55:23;18.60;99.90
30001;DHT22;16845;48.670;9.000;2022-08-19T04:57:53;18.70;99.90
30001;DHT22;16845;48.670;9.000;2022-08-19T05:00:21;18.60;99.90
30001;DHT22;16845;48.670;9.000;2022-08-19T05:02:49;18.70;99.90
30001;DHT22;16845;48.670;9.000;2022-08-19T05:05:17;18.70;99.90
30001;DHT22;16845;48.670;9.000;2022-08-19T05:07:46;18.70;99.90
30001;DHT22;16845;48.670;9.000;2022-08-19T05:10:14;18.70;99.90
30001;DHT22;16845;48.670;9.000;2022-08-19T05:12:43;18.70;99.90
30001;DHT22;16845;48.670;9.000;2022-08-19T05:15:11;18.80;99.90
30001;DHT22;16845;48.670;9.000;2022-08-19T05:17:39;18.80;99.90
30001;DHT22;16845;48.670;9.000;2022-08-19T05:20:28;18.80;99.90
30001;DHT22;16845;48.670;9.000;2022-08-19T05:23:14;18.80;99.90
30001;DHT22;16845;48.670;9.000;2022-08-19T05:25:48;18.80;99.90
30001;DHT22;16845;48.670;9.000;2022-08-19T05:28:18;18.90;99.90
30001;DHT22;16845;48.670;9.000;2022-08-19T05:30:46;18.80;99.90
30001;DHT22;16845;48.670;9.000;2022-08-19T05:33:14;18.80;99.90
30001;DHT22;16845;48.670;9.000;2022-08-19T05:35:42;18.80;99.90
30001;DHT22;16845;48.670;9.000;2022-08-19T05:38:15;18.80;99.90
30001;DHT22;16845;48.670;9.000;2022-08-19T05:40:44;18.90;99.90
30001;DHT22;16845;48.670;9.000;2022-08-19T05:43:13;18.80;99.90
30001;DHT22;16845;48.670;9.000;2022-08-19T05:45:45;18.90;99.90
30001;DHT22;16845;48.670;9.000;2022-08-19T05:48:13;18.90;99.90
30001;DHT22;16845;48.670;9.000;2022-08-19T05:50:44;18.90;99.90
30001;DHT22;16845;48.670;9.000;2022-08-19T05:53:12;18.90;99.90
30001;DHT22;16845;48.670;9.000;2022-08-19T05:55:41;18.80;99.90
30001;DHT22;16845;48.670;9.000;2022-08-19T05:58:08;18.90;99.90
30001;DHT22;16845;48.670;9.000;2022-08-19T06:00:37;18.80;99.90
30001;DHT22;16845;48.670;9.000;2022-08-19T06:03:07;18.90;99.90
30001;DHT22;16845;48.670;9.000;2022-08-19T06:05:39;18.90;99.90
30001;DHT22;16845;48.670;9.000;2022-08-19T06:08:18;19.00;99.90
30001;DHT22;16845;48.670;9.000;2022-08-19T06:11:13;19.00;99.90
30001;DHT22;16845;48.670;9.000;2022-08-19T06:13:42;19.00;99.90
30001;DHT22;16845;48.670;9.000;2022-08-19T06:16:10;19.00;99.90
30001;DHT22;16845;48.670;9.000;2022-08-19T06:18:39;18.90;99.90
30001;DHT22;16845;48.670;9.000;2022-08-19T06:21:07;18.90;99.90
30001;DHT22;16845;48.670;9.000;2022-08-19T06:23:35;19.00;99.90
30001;DHT22;16845;48.670;9.000;2022-08-19T06:26:03;18.90;99.90
30001;DHT22;16845;48.670;9.000;2022-08-19T06:28:31;19.00;99.90
30001;DHT22;16845;48.670;9.000;2022-08-19T06:31:06;19.00;99.90
30001;DHT22;16845;48.670;9.000;2022-08-19T06:33:34;19.00;99.90
30001;DHT22;16845;48.670;9.000;2022-08-19T06:36:03;19.10;99.90
30001;DHT22;16845;48.670;9.000;2022-08-19T06:38:32;19.00;99.90
30001;DHT22;16845;48.670;9.000;2022-08-19T06:41:02;19.10;99.90
30001;DHT22;16845;48.670;9.000;2022-08-19T06:43:33;19.00;99.90
30001;DHT22;16845;48.670;9.000;2022-08-19T06:46:10;19.10;99.90
30001;DHT22;16845;48.670;9.000;2022-08-19T06:48:40;19.10;99.90
30001;DHT22;16845;48.670;9.000;2022-08-19T06:51:14;19.20;99.90
30001;DHT22;16845;48.670;9.000;2022-08-19T06:53:45;19.30;99.90
30001;DHT22;16845;48.670;9.000;2022-08-19T06:56:15;19.30;99.90
30001;DHT22;16845;48.670;9.000;2022-08-19T06:58:43;19.40;99.90
30001;DHT22;16845;48.670;9.000;2022-08-19T07:01:13;19.40;99.90
30001;DHT22;16845;48.670;9.000;2022-08-19T07:03:40;19.40;99.90
30001;DHT22;16845;48.670;9.000;2022-08-19T07:06:11;19.40;99.90
30001;DHT22;16845;48.670;9.000;2022-08-19T07:09:01;19.40;99.90
30001;DHT22;16845;48.670;9.000;2022-08-19T07:11:29;19.40;99.90
30001;DHT22;16845;48.670;9.000;2022-08-19T07:14:00;19.40;99.90
30001;DHT22;16845;48.670;9.000;2022-08-19T07:16:29;19.40;99.90
30001;DHT22;16845;48.670;9.000;2022-08-19T07:18:57;19.50;99.90
30001;DHT22;16845;48.670;9.000;2022-08-19T07:21:41;19.60;99.90
30001;DHT22;16845;48.670;9.000;2022-08-19T07:24:11;19.70;99.90
30001;DHT22;16845;48.670;9.000;2022-08-19T07:26:42;19.80;99.90
30001;DHT22;16845;48.670;9.000;2022-08-19T07:29:11;20.00;99.90
30001;DHT22;16845;48.670;9.000;2022-08-19T07:31:39;20.10;99.90
30001;DHT22;16845;48.670;9.000;2022-08-19T07:34:11;20.20;99.90
30001;DHT22;16845;48.670;9.000;2022-08-19T07:36:42;20.30;99.90
30001;DHT22;16845;48.670;9.000;2022-08-19T07:39:19;20.20;99.90
30001;DHT22;16845;48.670;9.000;2022-08-19T07:41:47;20.10;99.90
30001;DHT22;16845;48.670;9.000;2022-08-19T07:44:18;20.10;99.90
30001;DHT22;16845;48.670;9.000;2022-08-19T07:46:52;20.10;99.90
30001;DHT22;16845;48.670;9.000;2022-08-19T07:49:20;19.90;99.90
30001;DHT22;16845;48.670;9.000;2022-08-19T07:51:51;19.90;99.90
30001;DHT22;16845;48.670;9.000;2022-08-19T07:54:23;19.80;99.90
30001;DHT22;16845;48.670;9.000;2022-08-19T07:56:51;19.70;99.90
30001;DHT22;16845;48.670;9.000;2022-08-19T07:59:20;19.60;99.90
30001;DHT22;16845;48.670;9.000;2022-08-19T08:01:49;19.60;99.90
30001;DHT22;16845;48.670;9.000;2022-08-19T08:04:17;19.60;99.90
30001;DHT22;16845;48.670;9.000;2022-08-19T08:07:04;19.60;99.90
30001;DHT22;16845;48.670;9.000;2022-08-19T08:09:59;19.60;99.90
30001;DHT22;16845;48.670;9.000;2022-08-19T08:12:32;19.50;99.90
30001;DHT22;16845;48.670;9.000;2022-08-19T08:15:05;19.40;99.90
30001;DHT22;16845;48.670;9.000;2022-08-19T08:17:38;19.40;99.90
30001;DHT22;16845;48.670;9.000;2022-08-19T08:20:16;19.40;99.90
30001;DHT22;16845;48.670;9.000;2022-08-19T08:22:44;19.30;99.90
30001;DHT22;16845;48.670;9.000;2022-08-19T08:25:31;19.30;99.90
30001;DHT22;16845;48.670;9.000;2022-08-19T08:28:01;19.20;99.90
30001;DHT22;16845;48.670;9.000;2022-08-19T08:30:31;19.20;99.90
30001;DHT22;16845;48.670;9.000;2022-08-19T08:33:03;19.10;99.90
30001;DHT22;16845;48.670;9.000;2022-08-19T08:35:31;19.10;99.90
30001;DHT22;16845;48.670;9.000;2022-08-19T08:38:00;19.10;99.90
30001;DHT22;16845;48.670;9.000;2022-08-19T08:40:39;19.00;99.90
30001;DHT22;16845;48.670;9.000;2022-08-19T08:43:11;19.00;99.90
30001;DHT22;16845;48.670;9.000;2022-08-19T08:45:46;19.00;99.90
30001;DHT22;16845;48.670;9.000;2022-08-19T08:48:24;19.00;99.90
30001;DHT22;16845;48.670;9.000;2022-08-19T08:50:55;19.00;99.90
30001;DHT22;16845;48.670;9.000;2022-08-19T08:53:24;19.10;99.90
30001;DHT22;16845;48.670;9.000;2022-08-19T08:56:02;19.10;99.90
30001;DHT22;16845;48.670;9.000;2022-08-19T08:58:39;19.00;99.90
30001;DHT22;16845;48.670;9.000;2022-08-19T09:01:11;19.10;99.90
30001;DHT22;16845;48.670;9.000;2022-08-19T09:03:41;19.10;99.90
30001;DHT22;16845;48.670;9.000;2022-08-19T09:06:14;19.20;99.90
30001;DHT22;16845;48.670;9.000;2022-08-19T09:08:49;19.40;99.90
30001;DHT22;16845;48.670;9.000;2022-08-19T09:11:35;19.50;99.90
30001;DHT22;16845;48.670;9.000;2022-08-19T09:14:15;19.70;99.90
30001;DHT22;16845;48.670;9.000;2022-08-19T09:17:07;19.70;99.90
30001;DHT22;16845;48.670;9.000;2022-08-19T09:19:46;19.70;99.90
30001;DHT22;16845;48.670;9.000;2022-08-19T09:22:14;19.80;99.90
30001;DHT22;16845;48.670;9.000;2022-08-19T09:24:51;19.90;99.90
30001;DHT22;16845;48.670;9.000;2022-08-19T09:27:22;19.90;99.90
30001;DHT22;16845;48.670;9.000;2022-08-19T09:30:13;20.00;99.90
30001;DHT22;16845;48.670;9.000;2022-08-19T09:32:42;20.10;99.90
30001;DHT22;16845;48.670;9.000;2022-08-19T09:35:12;20.20;99.90
30001;DHT22;16845;48.670;9.000;2022-08-19T09:37:42;20.20;99.90
30001;DHT22;16845;48.670;9.000;2022-08-19T09:40:12;20.20;99.90
30001;DHT22;16845;48.670;9.000;2022-08-19T09:42:43;20.30;99.90
30001;DHT22;16845;48.670;9.000;2022-08-19T09:45:19;20.30;99.90
30001;DHT22;16845;48.670;9.000;2022-08-19T09:47:49;20.30;99.90
30001;DHT22;16845;48.670;9.000;2022-08-19T09:50:19;20.20;99.90
30001;DHT22;16845;48.670;9.000;2022-08-19T09:52:47;20.20;99.90
30001;DHT22;16845;48.670;9.000;2022-08-19T09:55:24;20.30;99.90
30001;DHT22;16845;48.670;9.000;2022-08-19T09:58:00;20.20;99.90
30001;DHT22;16845;48.670;9.000;2022-08-19T10:00:28;20.20;99.90
30001;DHT22;16845;48.670;9.000;2022-08-19T10:02:57;20.20;99.90
30001;DHT22;16845;48.670;9.000;2022-08-19T10:05:27;20.20;99.90
30001;DHT22;16845;48.670;9.000;2022-08-19T10:08:16;20.30;99.90
30001;DHT22;16845;48.670;9.000;2022-08-19T10:10:47;20.30;99.90
30001;DHT22;16845;48.670;9.000;2022-08-19T10:13:18;20.30;99.90
30001;DHT22;16845;48.670;9.000;2022-08-19T10:15:48;20.40;99.90
30001;DHT22;16845;48.670;9.000;2022-08-19T10:18:19;20.50;99.90
30001;DHT22;16845;48.670;9.000;2022-08-19T10:20:49;20.50;99.90
30001;DHT22;16845;48.670;9.000;2022-08-19T10:23:19;20.50;99.90
30001;DHT22;16845;48.670;9.000;2022-08-19T10:25:48;20.50;99.90
30001;DHT22;16845;48.670;9.000;2022-08-19T10:28:17;20.40;99.90
30001;DHT22;16845;48.670;9.000;2022-08-19T10:30:46;20.50;99.90
30001;DHT22;16845;48.670;9.000;2022-08-19T10:33:14;20.60;99.90
30001;DHT22;16845;48.670;9.000;2022-08-19T10:36:05;20.50;99.90
30001;DHT22;16845;48.670;9.000;2022-08-19T10:38:33;20.60;99.90
30001;DHT22;16845;48.670;9.000;2022-08-19T10:41:09;20.70;99.90
30001;DHT22;16845;48.670;9.000;2022-08-19T10:43:39;20.70;99.90
30001;DHT22;16845;48.670;9.000;2022-08-19T10:46:08;20.70;99.90
30001;DHT22;16845;48.670;9.000;2022-08-19T10:48:43;20.70;99.90
30001;DHT22;16845;48.670;9.000;2022-08-19T10:51:11;20.80;99.90
30001;DHT22;16845;48.670;9.000;2022-08-19T10:53:58;20.90;99.90
30001;DHT22;16845;48.670;9.000;2022-08-19T10:56:27;20.90;99.90
30001;DHT22;16845;48.670;9.000;2022-08-19T10:59:15;20.90;99.90
30001;DHT22;16845;48.670;9.000;2022-08-19T11:01:44;20.80;99.90
30001;DHT22;16845;48.670;9.000;2022-08-19T11:04:17;20.80;99.90
30001;DHT22;16845;48.670;9.000;2022-08-19T11:06:47;20.90;99.90
30001;DHT22;16845;48.670;9.000;2022-08-19T11:09:17;21.00;99.90
30001;DHT22;16845;48.670;9.000;2022-08-19T11:11:45;21.10;99.90
30001;DHT22;16845;48.670;9.000;2022-08-19T11:14:17;21.20;99.90
30001;DHT22;16845;48.670;9.000;2022-08-19T11:16:47;21.40;99.90
30001;DHT22;16845;48.670;9.000;2022-08-19T11:19:16;21.50;99.90
30001;DHT22;16845;48.670;9.000;2022-08-19T11:21:48;21.70;99.90
30001;DHT22;16845;48.670;9.000;2022-08-19T11:24:17;21.80;99.90
30001;DHT22;16845;48.670;9.000;2022-08-19T11:26:48;21.80;99.90
30001;DHT22;16845;48.670;9.000;2022-08-19T11:29:20;21.80;99.90
30001;DHT22;16845;48.670;9.000;2022-08-19T11:31:49;21.90;99.90
30001;DHT22;16845;48.670;9.000;2022-08-19T11:34:19;21.90;99.90
30001;DHT22;16845;48.670;9.000;2022-08-19T11:36:49;21.70;99.90
30001;DHT22;16845;48.670;9.000;2022-08-19T11:39:21;21.80;99.90
30001;DHT22;16845;48.670;9.000;2022-08-19T11:41:49;21.70;99.90
30001;DHT22;16845;48.670;9.000;2022-08-19T11:44:18;21.60;99.90
30001;DHT22;16845;48.670;9.000;2022-08-19T11:46:46;21.50;99.90
30001;DHT22;16845;48.670;9.000;2022-08-19T11:49:16;21.50;99.90
30001;DHT22;16845;48.670;9.000;2022-08-19T11:51:46;21.50;99.90
30001;DHT22;16845;48.670;9.000;2022-08-19T11:54:15;21.60;99.90
30001;DHT22;16845;48.670;9.000;2022-08-19T11:56:44;21.70;99.90
30001;DHT22;16845;48.670;9.000;2022-08-19T11:59:14;21.60;99.90
30001;DHT22;16845;48.670;9.000;2022-08-19T12:01:43;21.60;99.90
30001;DHT22;16845;48.670;9.000;2022-08-19T12:04:11;21.60;99.90
30001;DHT22;16845;48.670;9.000;2022-08-19T12:06:40;21.60;99.90
30001;DHT22;16845;48.670;9.000;2022-08-19T12:09:10;21.60;99.90
30001;DHT22;16845;48.670;9.000;2022-08-19T12:11:39;21.60;99.90
30001;DHT22;16845;48.670;9.000;2022-08-19T12:14:10;21.70;99.90
30001;DHT22;16845;48.670;9.000;2022-08-19T12:16:41;21.70;99.90
30001;DHT22;16845;48.670;9.000;2022-08-19T12:19:19;21.70;99.90
30001;DHT22;16845;48.670;9.000;2022-08-19T12:21:48;21.60;99.90
30001;DHT22;16845;48.670;9.000;2022-08-19T12:24:17;21.60;99.90
30001;DHT22;16845;48.670;9.000;2022-08-19T12:26:49;21.70;99.90
30001;DHT22;16845;48.670;9.000;2022-08-19T12:29:20;21.70;99.90
30001;DHT22;16845;48.670;9.000;2022-08-19T12:31:50;21.90;99.90
30001;DHT22;16845;48.670;9.000;2022-08-19T12:34:19;22.20;99.90
30001;DHT22;16845;48.670;9.000;2022-08-19T12:36:47;22.60;99.90
30001;DHT22;16845;48.670;9.000;2022-08-19T12:39:16;22.90;99.90
30001;DHT22;16845;48.670;9.000;2022-08-19T12:41:44;23.10;99.90
30001;DHT22;16845;48.670;9.000;2022-08-19T12:44:21;23.20;99.90
30001;DHT22;16845;48.670;9.000;2022-08-19T12:46:58;23.00;99.90
30001;DHT22;16845;48.670;9.000;2022-08-19T12:49:29;22.90;99.90
30001;DHT22;16845;48.670;9.000;2022-08-19T12:52:18;22.80;99.90
30001;DHT22;16845;48.670;9.000;2022-08-19T12:54:49;22.80;99.90
30001;DHT22;16845;48.670;9.000;2022-08-19T12:57:21;22.80;99.90
30001;DHT22;16845;48.670;9.000;2022-08-19T12:59:52;22.80;99.90
30001;DHT22;16845;48.670;9.000;2022-08-19T13:02:21;22.80;99.90
30001;DHT22;16845;48.670;9.000;2022-08-19T13:04:50;22.80;99.90
30001;DHT22;16845;48.670;9.000;2022-08-19T13:07:18;22.90;99.90
30001;DHT22;16845;48.670;9.000;2022-08-19T13:09:46;22.80;99.90
30001;DHT22;16845;48.670;9.000;2022-08-19T13:12:14;22.90;99.90
30001;DHT22;16845;48.670;9.000;2022-08-19T13:14:42;22.90;99.90
30001;DHT22;16845;48.670;9.000;2022-08-19T13:17:12;22.80;99.90
30001;DHT22;16845;48.670;9.000;2022-08-19T13:19:41;22.70;99.90
30001;DHT22;16845;48.670;9.000;2022-08-19T13:22:10;22.80;99.90
30001;DHT22;16845;48.670;9.000;2022-08-19T13:24:40;22.80;99.90
30001;DHT22;16845;48.670;9.000;2022-08-19T13:27:13;22.90;99.90
30001;DHT22;16845;48.670;9.000;2022-08-19T13:29:42;23.20;99.90
30001;DHT22;16845;48.670;9.000;2022-08-19T13:32:29;23.50;99.90
30001;DHT22;16845;48.670;9.000;2022-08-19T13:35:17;23.60;99.90
30001;DHT22;16845;48.670;9.000;2022-08-19T13:37:46;23.40;99.90
30001;DHT22;16845;48.670;9.000;2022-08-19T13:40:16;23.30;99.90
30001;DHT22;16845;48.670;9.000;2022-08-19T13:42:47;23.30;99.90
30001;DHT22;16845;48.670;9.000;2022-08-19T13:45:17;23.20;99.90
30001;DHT22;16845;48.670;9.000;2022-08-19T13:47:46;23.30;99.90
30001;DHT22;16845;48.670;9.000;2022-08-19T13:50:17;23.30;99.90
30001;DHT22;16845;48.670;9.000;2022-08-19T13:52:48;23.20;99.90
30001;DHT22;16845;48.670;9.000;2022-08-19T13:55:16;23.20;99.90
30001;DHT22;16845;48.670;9.000;2022-08-19T13:57:50;23.30;99.90
30001;DHT22;16845;48.670;9.000;2022-08-19T14:00:20;23.60;99.90
30001;DHT22;16845;48.670;9.000;2022-08-19T14:02:52;24.00;99.90
30001;DHT22;16845;48.670;9.000;2022-08-19T14:05:21;24.00;99.90
30001;DHT22;16845;48.670;9.000;2022-08-19T14:07:50;24.00;99.90
30001;DHT22;16845;48.670;9.000;2022-08-19T14:10:19;23.70;99.90
30001;DHT22;16845;48.670;9.000;2022-08-19T14:12:47;23.70;99.90
30001;DHT22;16845;48.670;9.000;2022-08-19T14:15:16;23.60;99.90
30001;DHT22;16845;48.670;9.000;2022-08-19T14:17:44;23.60;99.90
30001;DHT22;16845;48.670;9.000;2022-08-19T14:20:14;23.80;99.90
30001;DHT22;16845;48.670;9.000;2022-08-19T14:22:45;24.10;99.90
30001;DHT22;16845;48.670;9.000;2022-08-19T14:25:17;24.50;99.90
30001;DHT22;16845;48.670;9.000;2022-08-19T14:27:46;24.60;99.90
30001;DHT22;16845;48.670;9.000;2022-08-19T14:30:19;24.50;99.90
30001;DHT22;16845;48.670;9.000;2022-08-19T14:32:47;24.40;99.90
30001;DHT22;16845;48.670;9.000;2022-08-19T14:35:16;24.10;99.90
30001;DHT22;16845;48.670;9.000;2022-08-19T14:37:45;23.90;99.90
30001;DHT22;16845;48.670;9.000;2022-08-19T14:40:16;23.60;99.90
30001;DHT22;16845;48.670;9.000;2022-08-19T14:42:47;23.40;99.90
30001;DHT22;16845;48.670;9.000;2022-08-19T14:45:15;23.20;99.90
30001;DHT22;16845;48.670;9.000;2022-08-19T14:47:43;23.10;99.90
30001;DHT22;16845;48.670;9.000;2022-08-19T14:50:20;23.10;99.90
30001;DHT22;16845;48.670;9.000;2022-08-19T14:52:48;23.10;99.90
30001;DHT22;16845;48.670;9.000;2022-08-19T14:55:19;23.20;99.90
30001;DHT22;16845;48.670;9.000;2022-08-19T14:57:47;23.30;99.90
30001;DHT22;16845;48.670;9.000;2022-08-19T15:00:17;23.30;99.90
30001;DHT22;16845;48.670;9.000;2022-08-19T15:02:45;23.50;99.90
30001;DHT22;16845;48.670;9.000;2022-08-19T15:05:13;23.50;99.90
30001;DHT22;16845;48.670;9.000;2022-08-19T15:07:41;23.60;99.90
30001;DHT22;16845;48.670;9.000;2022-08-19T15:10:11;23.60;99.90
30001;DHT22;16845;48.670;9.000;2022-08-19T15:12:41;23.60;99.90
30001;DHT22;16845;48.670;9.000;2022-08-19T15:15:13;23.60;99.90
30001;DHT22;16845;48.670;9.000;2022-08-19T15:17:41;23.70;99.90
30001;DHT22;16845;48.670;9.000;2022-08-19T15:20:15;23.70;99.90
30001;DHT22;16845;48.670;9.000;2022-08-19T15:22:43;23.80;99.90
30001;DHT22;16845;48.670;9.000;2022-08-19T15:25:13;24.00;99.90
30001;DHT22;16845;48.670;9.000;2022-08-19T15:27:43;24.30;99.90
30001;DHT22;16845;48.670;9.000;2022-08-19T15:30:18;24.50;99.90
30001;DHT22;16845;48.670;9.000;2022-08-19T15:32:46;24.70;99.90
30001;DHT22;16845;48.670;9.000;2022-08-19T15:35:15;25.00;99.90
30001;DHT22;16845;48.670;9.000;2022-08-19T15:37:45;25.10;99.90
30001;DHT22;16845;48.670;9.000;2022-08-19T15:40:13;25.10;99.90
30001;DHT22;16845;48.670;9.000;2022-08-19T15:42:42;25.40;99.90
30001;DHT22;16845;48.670;9.000;2022-08-19T15:45:11;25.60;99.90
30001;DHT22;16845;48.670;9.000;2022-08-19T15:47:40;25.80;99.90
30001;DHT22;16845;48.670;9.000;2022-08-19T15:50:11;26.10;99.90
30001;DHT22;16845;48.670;9.000;2022-08-19T15:52:45;26.20;99.90
30001;DHT22;16845;48.670;9.000;2022-08-19T15:55:16;26.40;99.90